Time;durP1;ratioP1;P1;durP2;ratioP2;P2;SDS_P1;SDS_P2;PMS_P1;PMS_P2;Temp;Humidity;BMP_temperature;BMP_pressure;BME280_temperature;BME280_humidity;BME280_pressure;Samples;Min_cycle;Max_cycle;Signal;HPM_P1;HPM_P2
2023/08/23 00:00:25;;;;;;;7.45;5.32;;;;;;;27.67;51.42;99603.03;4359740;32;34255;-72
2023/08/23 00:02:53;;;;;;;8.43;5.28;;;;;;;27.72;51.42;99599.59;4358967;32;33803;-72
2023/08/23 00:05:21;;;;;;;8.75;4.75;;;;;;;27.63;51.71;99588.06;4358894;32;34139;-72
2023/08/23 00:07:49;;;;;;;8.02;5.62;;;;;;;27.61;51.68;99588.31;4355154;32;34679;-72
2023/08/23 00:10:17;;;;;;;9.38;3.95;;;;;;;27.64;51.42;99576.88;4355441;32;33495;-72
2023/08/23 00:12:44;;;;;;;8.35;6.72;;;;;;;27.53;51.39;99574.87;4359956;32;33569;-72
2023/08/23 00:15:12;;;;;;;6.43;4.30;;;;;;;27.40;51.85;99569.53;4360533;32;33456;-72
2023/08/23 00:17:40;;;;;;;11.63;4.87;;;;;;;27.53;51.31;99571.28;4355137;32;35231;-72
2023/08/23 00:20:07;;;;;;;8.95;4.82;;;;;;;27.58;51.04;99568.69;4352434;32;33246;-72
2023/08/23 00:22:35;;;;;;;8.55;4.95;;;;;;;27.30;51.66;99575.56;4346988;32;33485;-71
2023/08/23 00:25:03;;;;;;;8.02;4.85;;;;;;;27.26;51.87;99577.09;4358072;32;34736;-72
2023/08/23 00:27:31;;;;;;;9.10;4.75;;;;;;;27.32;51.75;99564.31;4348415;32;34014;-71
2023/08/23 00:29:58;;;;;;;9.30;5.90;;;;;;;27.21;52.05;99570.59;4360266;32;33257;-71
2023/08/23 00:32:27;;;;;;;10.75;6.00;;;;;;;27.32;51.71;99559.69;4357255;32;33713;-71
2023/08/23 00:34:55;;;;;;;8.55;5.22;;;;;;;27.40;51.50;99570.38;4356358;32;33784;-71
2023/08/23 00:37:22;;;;;;;7.30;5.00;;;;;;;27.41;51.55;99569.28;4358362;32;32727;-70
2023/08/23 00:39:50;;;;;;;8.95;6.62;;;;;;;27.36;51.71;99554.56;4350971;32;33642;-70
2023/08/23 00:42:18;;;;;;;6.12;4.72;;;;;;;27.40;51.56;99556.63;4351998;32;33925;-69
2023/08/23 00:44:45;;;;;;;7.15;4.45;;;;;;;27.25;52.06;99560.81;4360606;32;33674;-69
2023/08/23 00:47:13;;;;;;;11.27;5.75;;;;;;;27.31;51.85;99554.41;4357777;32;33843;-69
2023/08/23 00:49:40;;;;;;;9.52;5.95;;;;;;;27.16;52.33;99560.28;4355811;32;33295;-70
2023/08/23 00:52:10;;;;;;;9.93;6.22;;;;;;;27.20;52.27;99561.50;4358727;32;33776;-70
2023/08/23 00:54:37;;;;;;;8.75;5.75;;;;;;;27.25;52.18;99552.56;4359297;32;34081;-69
2023/08/23 00:57:06;;;;;;;10.40;7.30;;;;;;;27.15;52.47;99555.84;4350392;32;34117;-70
2023/08/23 00:59:35;;;;;;;9.05;7.40;;;;;;;27.00;52.76;99547.09;4344959;32;33198;-70
2023/08/23 01:02:03;;;;;;;13.27;5.87;;;;;;;27.02;52.73;99553.19;4360642;32;33345;-70
2023/08/23 01:04:31;;;;;;;8.68;5.00;;;;;;;27.05;52.62;99547.25;4359773;32;35350;-70
2023/08/23 01:07:04;;;;;;;8.80;5.35;;;;;;;27.12;52.32;99550.78;4350299;32;33653;-70
2023/08/23 01:09:42;;;;;;;9.32;4.72;;;;;;;27.05;52.49;99548.09;4360075;32;33413;-70
2023/08/23 01:12:29;;;;;;;9.52;5.12;;;;;;;27.00;52.57;99553.44;4312306;33;34616;-70
2023/08/23 01:15:05;;;;;;;9.40;5.85;;;;;;;27.01;52.44;99546.88;4311897;33;35420;-70
2023/08/23 01:17:32;;;;;;;8.30;5.00;;;;;;;26.79;52.95;99548.34;4311400;33;34039;-70
2023/08/23 01:20:02;;;;;;;8.90;5.55;;;;;;;26.97;52.43;99545.66;4298193;33;33223;-70
2023/08/23 01:22:30;;;;;;;8.63;5.65;;;;;;;27.03;52.27;99547.50;4299817;33;33955;-69
2023/08/23 01:24:58;;;;;;;9.70;5.78;;;;;;;27.08;52.05;99549.56;4299185;33;35242;-69
2023/08/23 01:27:28;;;;;;;9.60;5.70;;;;;;;27.05;52.08;99550.84;4288341;33;34003;-69
2023/08/23 01:29:59;;;;;;;12.05;6.03;;;;;;;27.05;52.11;99556.34;4298851;33;33745;-69
2023/08/23 01:32:48;;;;;;;9.43;5.72;;;;;;;27.09;52.09;99552.06;4298472;33;33751;-69
2023/08/23 01:35:20;;;;;;;9.15;4.90;;;;;;;27.03;52.33;99554.88;4298899;33;34611;-69
2023/08/23 01:37:52;;;;;;;9.32;5.85;;;;;;;27.01;52.76;99555.12;4301042;33;34056;-70
2023/08/23 01:40:20;;;;;;;11.23;7.45;;;;;;;26.94;52.90;99554.34;4287200;33;33646;-70
2023/08/23 01:42:48;;;;;;;9.73;5.95;;;;;;;26.99;52.62;99548.16;4308513;33;32842;-69
2023/08/23 01:45:15;;;;;;;10.00;6.35;;;;;;;26.98;52.42;99552.81;4328015;33;33828;-69
2023/08/23 01:47:43;;;;;;;10.98;6.07;;;;;;;26.98;52.16;99546.50;4328040;33;34763;-69
2023/08/23 01:50:12;;;;;;;8.73;5.60;;;;;;;26.94;52.31;99548.84;4318674;33;33592;-69
2023/08/23 01:52:39;;;;;;;9.98;4.85;;;;;;;26.97;52.28;99547.53;4358560;32;34590;-69
2023/08/23 01:55:08;;;;;;;9.32;6.85;;;;;;;26.91;52.35;99546.56;4359726;32;33659;-70
2023/08/23 01:57:36;;;;;;;8.50;5.20;;;;;;;26.93;52.27;99547.16;4355375;32;33910;-70
2023/08/23 02:00:05;;;;;;;9.18;4.80;;;;;;;26.98;52.08;99544.59;4361004;32;34532;-69
2023/08/23 02:02:40;;;;;;;13.23;5.60;;;;;;;26.97;52.09;99539.28;4351598;32;33425;-69
2023/08/23 02:05:08;;;;;;;11.98;6.62;;;;;;;26.94;52.14;99541.44;4349155;32;33666;-69
2023/08/23 02:07:36;;;;;;;10.52;5.65;;;;;;;26.87;52.28;99540.69;4360833;32;33666;-69
2023/08/23 02:10:04;;;;;;;9.57;4.95;;;;;;;26.87;52.25;99537.94;4358796;32;34262;-70
2023/08/23 02:12:32;;;;;;;10.23;5.80;;;;;;;26.93;52.15;99536.16;4360760;32;36834;-69
2023/08/23 02:14:59;;;;;;;10.27;6.28;;;;;;;26.94;52.09;99532.38;4357733;32;34936;-69
2023/08/23 02:17:27;;;;;;;8.70;5.90;;;;;;;26.90;52.27;99525.62;4346587;32;33773;-69
2023/08/23 02:19:54;;;;;;;8.50;4.95;;;;;;;26.88;52.34;99525.03;4352011;32;33738;-69
2023/08/23 02:22:22;;;;;;;7.82;4.65;;;;;;;26.91;52.31;99517.19;4346540;32;34675;-69
2023/08/23 02:24:50;;;;;;;12.25;8.05;;;;;;;26.89;52.39;99519.31;4350711;32;35353;-69
2023/08/23 02:27:17;;;;;;;9.07;5.50;;;;;;;26.90;52.39;99517.41;4357579;32;33782;-69
2023/08/23 02:29:45;;;;;;;8.98;5.43;;;;;;;26.91;52.24;99517.19;4353273;32;34578;-69
2023/08/23 02:32:13;;;;;;;9.35;5.68;;;;;;;26.86;52.26;99516.19;4359958;32;33997;-69
2023/08/23 02:34:40;;;;;;;9.10;5.40;;;;;;;26.92;52.40;99507.88;4358997;32;35143;-69
2023/08/23 02:37:08;;;;;;;12.35;7.00;;;;;;;26.98;52.55;99514.38;4352841;32;34851;-69
2023/08/23 02:39:36;;;;;;;8.55;5.05;;;;;;;26.90;52.46;99515.53;4359762;32;34520;-69
2023/08/23 02:42:04;;;;;;;8.48;5.25;;;;;;;26.97;52.25;99507.22;4357228;32;33631;-69
2023/08/23 02:44:31;;;;;;;9.15;5.68;;;;;;;27.01;52.17;99511.16;4352289;32;34891;-69
2023/08/23 02:46:59;;;;;;;7.75;5.00;;;;;;;27.03;51.98;99513.69;4359478;32;33983;-69
2023/08/23 02:49:27;;;;;;;7.95;4.85;;;;;;;27.06;51.87;99513.22;4357703;32;34431;-69
2023/08/23 02:51:54;;;;;;;10.02;4.75;;;;;;;27.08;51.78;99514.69;4360625;32;34937;-68
2023/08/23 02:54:22;;;;;;;11.55;6.00;;;;;;;27.02;51.98;99512.84;4359350;32;35163;-69
2023/08/23 02:56:50;;;;;;;7.97;5.18;;;;;;;26.98;52.16;99510.78;4359626;32;34339;-70
2023/08/23 02:59:17;;;;;;;10.00;5.85;;;;;;;26.95;52.12;99512.91;4350707;32;33207;-69
2023/08/23 03:01:45;;;;;;;12.07;7.28;;;;;;;26.84;52.47;99516.41;4348839;32;34341;-69
2023/08/23 03:04:13;;;;;;;9.35;5.70;;;;;;;26.83;52.57;99511.13;4358111;32;35011;-69
2023/08/23 03:06:40;;;;;;;8.98;5.78;;;;;;;26.68;52.99;99512.34;4357814;32;34712;-69
2023/08/23 03:09:08;;;;;;;9.45;6.07;;;;;;;26.65;53.02;99515.53;4362387;32;33221;-69
2023/08/23 03:11:35;;;;;;;9.98;5.72;;;;;;;26.56;53.20;99516.03;4360861;32;33841;-69
2023/08/23 03:14:03;;;;;;;8.90;5.82;;;;;;;26.60;53.15;99515.38;4362943;32;34890;-70
2023/08/23 03:16:31;;;;;;;8.60;5.50;;;;;;;26.54;53.28;99512.69;4359062;32;34026;-69
2023/08/23 03:18:59;;;;;;;9.75;8.05;;;;;;;26.58;53.13;99525.75;4360007;32;33592;-69
2023/08/23 03:21:27;;;;;;;10.23;5.55;;;;;;;26.53;53.28;99519.25;4360634;32;35601;-69
2023/08/23 03:23:55;;;;;;;9.52;4.95;;;;;;;26.59;53.20;99521.94;4357357;32;34516;-71
2023/08/23 03:26:23;;;;;;;7.68;5.12;;;;;;;26.58;53.26;99523.00;4357913;32;34939;-73
2023/08/23 03:28:51;;;;;;;9.15;5.30;;;;;;;26.62;53.04;99515.16;4348388;32;33100;-73
2023/08/23 03:31:19;;;;;;;7.87;5.10;;;;;;;26.57;53.07;99513.06;4357152;32;32825;-73
2023/08/23 03:33:46;;;;;;;8.05;6.35;;;;;;;26.53;53.10;99511.00;4355501;32;33790;-73
2023/08/23 03:36:14;;;;;;;10.18;7.53;;;;;;;26.57;53.04;99504.00;4361867;32;34270;-72
2023/08/23 03:38:42;;;;;;;7.93;5.37;;;;;;;26.57;53.09;99506.75;4352903;32;33631;-69
2023/08/23 03:41:13;;;;;;;8.38;5.57;;;;;;;26.65;53.09;99503.72;4360592;32;33477;-73
2023/08/23 03:43:40;;;;;;;10.55;5.90;;;;;;;26.67;53.20;99507.91;4357797;32;33803;-73
2023/08/23 03:46:09;;;;;;;9.48;5.55;;;;;;;26.73;53.06;99508.91;4360675;32;34177;-73
2023/08/23 03:48:36;;;;;;;9.02;5.47;;;;;;;26.70;53.26;99506.63;4346335;32;33341;-69
2023/08/23 03:51:04;;;;;;;9.32;5.57;;;;;;;26.78;53.19;99513.75;4357695;32;33809;-69
2023/08/23 03:53:32;;;;;;;7.87;5.12;;;;;;;26.77;53.10;99509.28;4359839;32;33913;-69
2023/08/23 03:55:59;;;;;;;14.87;6.10;;;;;;;26.70;53.29;99514.84;4361471;32;33903;-70
2023/08/23 03:58:29;;;;;;;9.73;5.78;;;;;;;26.68;53.29;99517.84;4362274;32;33773;-69
2023/08/23 04:00:57;;;;;;;8.45;5.45;;;;;;;26.56;53.59;99514.13;4360350;32;33921;-69
2023/08/23 04:03:24;;;;;;;7.95;5.47;;;;;;;26.54;53.64;99507.19;4348628;32;33909;-69
2023/08/23 04:05:52;;;;;;;10.18;6.05;;;;;;;26.47;53.91;99508.03;4348404;32;33995;-69
2023/08/23 04:08:20;;;;;;;8.77;4.93;;;;;;;26.35;54.30;99517.22;4358025;32;34981;-69
2023/08/23 04:10:49;;;;;;;6.90;4.32;;;;;;;26.29;54.28;99509.88;4361845;32;33738;-70
2023/08/23 04:13:17;;;;;;;8.75;5.37;;;;;;;26.27;54.11;99507.38;4352019;32;33925;-71
2023/08/23 04:15:45;;;;;;;8.70;6.07;;;;;;;26.12;54.55;99509.59;4358502;32;35176;-69
2023/08/23 04:18:12;;;;;;;7.90;4.95;;;;;;;26.18;54.40;99508.72;4360804;32;33565;-68
2023/08/23 04:20:40;;;;;;;11.60;5.30;;;;;;;26.29;54.11;99493.44;4360731;32;34662;-69
2023/08/23 04:23:08;;;;;;;9.35;4.95;;;;;;;26.15;54.69;99490.78;4361178;32;33749;-69
2023/08/23 04:25:36;;;;;;;10.80;6.40;;;;;;;26.28;54.38;99495.34;4359402;32;33941;-73
2023/08/23 04:28:04;;;;;;;16.35;7.47;;;;;;;26.29;54.41;99486.03;4337489;32;33682;-73
2023/08/23 04:30:32;;;;;;;9.30;5.55;;;;;;;26.45;54.08;99484.63;4360231;32;33706;-72
2023/08/23 04:33:00;;;;;;;9.57;6.22;;;;;;;26.60;53.59;99493.41;4358894;32;33708;-73
2023/08/23 04:35:28;;;;;;;9.70;5.57;;;;;;;26.67;53.49;99488.69;4335089;32;33687;-69
2023/08/23 04:37:56;;;;;;;12.45;6.70;;;;;;;26.76;53.22;99486.50;4355096;32;33862;-70
2023/08/23 04:40:24;;;;;;;12.60;5.12;;;;;;;27.04;52.53;99496.16;4356336;32;33612;-70
2023/08/23 04:42:52;;;;;;;13.10;5.90;;;;;;;27.35;51.58;99495.16;4354735;32;34987;-71
2023/08/23 04:45:19;;;;;;;8.32;4.93;;;;;;;27.33;51.59;99497.31;4360299;32;34082;-71
2023/08/23 04:47:48;;;;;;;9.35;4.85;;;;;;;27.38;51.75;99495.56;4358117;32;34635;-71
2023/08/23 04:50:16;;;;;;;9.40;7.62;;;;;;;27.37;51.65;99493.88;4361153;32;34936;-71
2023/08/23 04:52:45;;;;;;;10.85;5.35;;;;;;;27.29;52.16;99501.59;4360786;32;34561;-71
2023/08/23 04:55:14;;;;;;;8.38;5.47;;;;;;;27.52;51.85;99493.47;4355151;32;34968;-72
2023/08/23 04:57:41;;;;;;;8.10;5.97;;;;;;;27.60;51.55;99504.16;4353672;32;34340;-71
2023/08/23 05:00:10;;;;;;;12.25;6.30;;;;;;;27.64;51.26;99505.37;4360570;32;33780;-73
2023/08/23 05:02:38;;;;;;;9.38;5.45;;;;;;;27.69;51.06;99501.94;4352984;32;34213;-71
2023/08/23 05:05:06;;;;;;;10.18;6.47;;;;;;;27.66;50.72;99501.56;4352276;32;33953;-73
2023/08/23 05:07:35;;;;;;;14.07;9.00;;;;;;;27.60;50.75;99495.91;4361224;32;33975;-74
2023/08/23 05:10:04;;;;;;;8.65;5.40;;;;;;;27.66;50.60;99501.56;4325017;33;33496;-73
2023/08/23 05:12:32;;;;;;;9.07;4.90;;;;;;;27.74;50.57;99501.25;4312151;33;35708;-74
2023/08/23 05:15:00;;;;;;;9.40;6.85;;;;;;;27.83;50.55;99492.47;4313844;33;34571;-74
2023/08/23 05:17:28;;;;;;;7.65;4.93;;;;;;;27.80;50.45;99492.94;4314416;33;32280;-74
2023/08/23 05:19:55;;;;;;;8.45;4.65;;;;;;;27.95;50.30;99492.50;4315319;33;34594;-74
2023/08/23 05:22:23;;;;;;;11.12;5.68;;;;;;;28.18;49.98;99493.62;4311818;33;33986;-72
2023/08/23 05:24:51;;;;;;;14.85;8.00;;;;;;;28.50;49.52;99495.03;4312952;33;34843;-73
2023/08/23 05:27:19;;;;;;;10.98;5.60;;;;;;;28.68;49.08;99493.25;4314074;33;34987;-74
2023/08/23 05:29:46;;;;;;;9.65;6.18;;;;;;;28.92;48.23;99503.19;4314966;33;33708;-75
2023/08/23 05:32:14;;;;;;;11.05;7.03;;;;;;;29.04;47.89;99494.09;4314515;33;34829;-75
2023/08/23 05:34:42;;;;;;;14.10;5.57;;;;;;;29.25;47.54;99504.50;4311075;33;34818;-75
2023/08/23 05:37:13;;;;;;;12.70;6.25;;;;;;;29.53;47.11;99494.59;4313403;33;34562;-75
2023/08/23 05:39:41;;;;;;;11.80;7.60;;;;;;;29.78;47.03;99508.09;4313491;33;34623;-75
2023/08/23 05:42:09;;;;;;;10.02;6.72;;;;;;;30.39;46.33;99496.25;4331925;33;35294;-75
2023/08/23 05:44:37;;;;;;;9.80;6.62;;;;;;;31.55;42.65;99500.19;4344385;33;33889;-75
2023/08/23 05:47:05;;;;;;;8.68;6.47;;;;;;;32.38;40.83;99503.56;4343370;33;33291;-75
2023/08/23 05:49:32;;;;;;;10.10;6.47;;;;;;;33.16;39.18;99503.94;4343518;32;34660;-75
2023/08/23 05:52:00;;;;;;;9.93;6.15;;;;;;;33.53;38.54;99496.63;4355535;32;34015;-75
2023/08/23 05:54:28;;;;;;;14.00;8.65;;;;;;;33.07;39.63;99505.53;4359967;32;33836;-75
2023/08/23 05:56:59;;;;;;;11.30;7.15;;;;;;;32.66;40.98;99502.44;4353059;32;33526;-75
2023/08/23 05:59:27;;;;;;;11.43;7.43;;;;;;;32.37;42.22;99501.09;4347718;32;33452;-75
2023/08/23 06:01:55;;;;;;;10.80;7.70;;;;;;;32.13;43.03;99509.72;4353934;32;33885;-74
2023/08/23 06:04:22;;;;;;;11.98;8.23;;;;;;;31.88;43.94;99501.09;4357967;32;35141;-74
2023/08/23 06:06:50;;;;;;;10.07;8.07;;;;;;;31.72;44.46;99495.44;4352939;32;33344;-74
2023/08/23 06:09:18;;;;;;;11.05;8.00;;;;;;;31.58;44.97;99496.06;4359668;32;33754;-74
2023/08/23 06:11:46;;;;;;;12.32;7.25;;;;;;;31.41;45.28;99505.28;4348849;32;34943;-74
2023/08/23 06:14:19;;;;;;;9.93;7.62;;;;;;;31.45;45.29;99500.06;4359078;32;34183;-73
2023/08/23 06:16:47;;;;;;;10.45;7.97;;;;;;;31.35;45.32;99499.94;4357160;32;33467;-75
2023/08/23 06:19:15;;;;;;;10.32;7.60;;;;;;;31.31;45.19;99505.13;4361110;32;33625;-75
2023/08/23 06:21:43;;;;;;;10.77;7.65;;;;;;;31.23;45.35;99502.78;4359664;32;33873;-75
2023/08/23 06:24:10;;;;;;;9.70;8.00;;;;;;;31.15;46.13;99501.31;4355418;32;34817;-75
2023/08/23 06:26:38;;;;;;;11.18;8.38;;;;;;;31.06;45.89;99503.69;4358672;32;33542;-75
2023/08/23 06:29:06;;;;;;;11.23;7.65;;;;;;;30.98;45.54;99504.13;4350748;32;33580;-77
2023/08/23 06:31:33;;;;;;;11.82;7.43;;;;;;;30.67;45.50;99504.72;4349076;32;34536;-76
2023/08/23 06:34:01;;;;;;;11.63;8.13;;;;;;;30.81;45.55;99506.91;4349397;32;34268;-76
2023/08/23 06:36:29;;;;;;;10.43;7.28;;;;;;;30.39;46.15;99507.31;4358567;32;33452;-76
2023/08/23 06:38:57;;;;;;;9.00;6.85;;;;;;;30.47;46.69;99511.59;4353013;32;33463;-76
2023/08/23 06:41:24;;;;;;;11.77;8.38;;;;;;;30.63;46.95;99515.44;4346324;32;33823;-76
2023/08/23 06:43:59;;;;;;;10.60;8.43;;;;;;;30.71;47.05;99515.00;4359236;32;33809;-76
2023/08/23 06:46:28;;;;;;;9.90;8.30;;;;;;;30.30;46.97;99516.25;4358534;32;33361;-74
2023/08/23 06:48:56;;;;;;;12.70;9.68;;;;;;;30.85;45.50;99510.84;4351824;32;33306;-74
2023/08/23 06:51:27;;;;;;;9.95;7.72;;;;;;;30.84;45.77;99516.62;4354806;32;35160;-77
2023/08/23 06:53:55;;;;;;;11.10;9.20;;;;;;;30.89;46.84;99518.63;4343229;32;32682;-77
2023/08/23 06:56:22;;;;;;;11.77;8.15;;;;;;;30.89;46.22;99524.16;4356398;32;34751;-77
2023/08/23 06:58:50;;;;;;;12.75;9.52;;;;;;;31.04;45.81;99527.13;4352179;32;35408;-77
2023/08/23 07:01:18;;;;;;;10.00;8.00;;;;;;;30.99;46.57;99536.19;4352694;32;35015;-78
2023/08/23 07:03:45;;;;;;;12.00;8.90;;;;;;;31.08;46.23;99529.16;4357795;32;33598;-77
2023/08/23 07:06:14;;;;;;;11.43;9.25;;;;;;;30.92;46.44;99532.78;4358016;32;33230;-77
2023/08/23 07:08:43;;;;;;;11.25;8.70;;;;;;;31.25;45.71;99531.03;4354229;32;33738;-76
2023/08/23 07:11:10;;;;;;;10.45;8.85;;;;;;;30.64;46.32;99526.22;4332566;33;34778;-75
2023/08/23 07:13:39;;;;;;;10.55;7.97;;;;;;;31.01;46.62;99524.88;4327152;33;33083;-76
2023/08/23 07:16:07;;;;;;;16.55;11.25;;;;;;;30.90;46.53;99523.91;4327491;33;35204;-78
2023/08/23 07:18:35;;;;;;;13.82;9.52;;;;;;;30.83;46.74;99534.28;4328688;33;34514;-74
2023/08/23 07:21:03;;;;;;;21.20;11.20;;;;;;;31.01;47.14;99534.03;4327964;33;33901;-74
2023/08/23 07:23:31;;;;;;;13.32;8.27;;;;;;;31.17;46.94;99532.28;4330624;33;32420;-73
2023/08/23 07:26:02;;;;;;;13.80;9.60;;;;;;;31.47;46.18;99536.63;4326475;33;33256;-74
2023/08/23 07:28:30;;;;;;;13.45;8.88;;;;;;;31.55;45.59;99536.16;4330730;33;33746;-73
2023/08/23 07:30:58;;;;;;;11.90;8.98;;;;;;;31.30;46.45;99543.00;4336335;33;34016;-75
2023/08/23 07:33:26;;;;;;;13.10;9.25;;;;;;;31.64;45.21;99548.44;4324868;33;33968;-75
2023/08/23 07:35:58;;;;;;;18.65;12.45;;;;;;;31.33;45.83;99547.19;4321875;33;33499;-75
2023/08/23 07:38:26;;;;;;;14.20;9.50;;;;;;;31.52;45.62;99547.72;4325772;33;33666;-75
2023/08/23 07:41:02;;;;;;;13.15;10.23;;;;;;;31.46;46.21;99560.69;4326637;33;34053;-76
2023/08/23 07:43:30;;;;;;;15.02;10.35;;;;;;;31.55;46.41;99552.75;4314884;33;34770;-75
2023/08/23 07:46:00;;;;;;;15.10;9.75;;;;;;;31.76;45.85;99557.44;4316625;33;33506;-75
2023/08/23 07:48:28;;;;;;;14.75;9.73;;;;;;;31.35;47.03;99558.00;4315866;33;33711;-75
2023/08/23 07:50:57;;;;;;;15.18;10.13;;;;;;;31.54;45.79;99559.37;4322574;33;34874;-78
2023/08/23 07:53:24;;;;;;;16.62;11.18;;;;;;;31.59;46.50;99551.16;4324290;33;34837;-80
2023/08/23 07:55:52;;;;;;;16.67;9.82;;;;;;;31.24;47.59;99555.09;4328324;33;33599;-79
2023/08/23 07:58:20;;;;;;;12.50;9.27;;;;;;;31.74;45.92;99553.25;4324617;32;33646;-80
2023/08/23 08:00:47;;;;;;;12.15;10.55;;;;;;;31.75;46.25;99561.31;4321608;33;34927;-76
2023/08/23 08:03:15;;;;;;;14.75;9.82;;;;;;;31.80;46.80;99555.00;4328817;33;34960;-75
2023/08/23 08:05:43;;;;;;;14.70;11.48;;;;;;;31.64;47.65;99556.75;4324777;33;33315;-83
2023/08/23 08:08:11;;;;;;;12.65;10.93;;;;;;;31.95;46.74;99560.75;4321918;33;32344;-83
2023/08/23 08:10:38;;;;;;;16.35;10.73;;;;;;;32.20;46.25;99557.41;4323858;33;32820;-82
2023/08/23 08:13:06;;;;;;;13.98;11.23;;;;;;;31.89;47.11;99555.41;4328171;32;32979;-83
2023/08/23 08:15:35;;;;;;;13.70;10.32;;;;;;;32.20;46.27;99553.78;4311398;33;34765;-82
2023/08/23 08:18:03;;;;;;;14.23;9.50;;;;;;;32.07;47.35;99551.44;4314954;33;33657;-80
2023/08/23 08:20:30;;;;;;;12.75;9.32;;;;;;;31.57;47.50;99550.56;4314425;33;34025;-83
2023/08/23 08:22:58;;;;;;;12.32;8.90;;;;;;;31.96;46.80;99556.88;4314281;33;33539;-82
2023/08/23 08:25:26;;;;;;;17.80;8.82;;;;;;;31.94;45.74;99545.25;4313209;33;33332;-81
2023/08/23 08:27:55;;;;;;;13.35;8.75;;;;;;;31.81;46.00;99542.81;4313508;33;34487;-83
2023/08/23 08:30:22;;;;;;;11.90;8.98;;;;;;;32.01;46.64;99543.09;4298215;33;33798;-79
2023/08/23 08:32:50;;;;;;;14.02;8.63;;;;;;;32.00;46.26;99540.56;4297879;33;33776;-82
2023/08/23 08:35:18;;;;;;;12.27;8.88;;;;;;;32.22;45.80;99546.06;4299247;33;32895;-83
2023/08/23 08:37:46;;;;;;;12.25;9.68;;;;;;;31.75;47.06;99544.72;4299662;33;34558;-79
2023/08/23 08:40:14;;;;;;;11.35;9.13;;;;;;;32.13;47.14;99551.22;4300627;33;35118;-80
2023/08/23 08:42:41;;;;;;;11.02;9.15;;;;;;;32.49;46.43;99543.31;4299969;33;33719;-80
2023/08/23 08:45:10;;;;;;;13.75;10.38;;;;;;;32.46;45.80;99555.75;4299447;33;34456;-80
2023/08/23 08:47:37;;;;;;;14.93;10.13;;;;;;;31.94;47.58;99550.78;4285445;33;33638;-78
2023/08/23 08:50:05;;;;;;;11.15;9.07;;;;;;;32.48;46.52;99553.53;4274601;33;33889;-77
2023/08/23 08:52:33;;;;;;;13.82;8.73;;;;;;;32.48;47.06;99552.72;4288871;33;34094;-78
2023/08/23 08:55:01;;;;;;;14.48;9.82;;;;;;;32.32;46.64;99554.47;4304085;33;33088;-78
2023/08/23 08:57:29;;;;;;;12.82;9.40;;;;;;;32.48;46.42;99552.72;4284497;33;33719;-76
2023/08/23 08:59:58;;;;;;;13.13;9.48;;;;;;;31.78;47.59;99555.28;4283087;33;32557;-76
2023/08/23 09:02:26;;;;;;;15.13;8.98;;;;;;;32.65;45.54;99561.75;4284408;33;33438;-77
2023/08/23 09:04:53;;;;;;;14.98;9.85;;;;;;;32.36;46.41;99550.09;4284908;33;33794;-77
2023/08/23 09:07:21;;;;;;;15.05;9.82;;;;;;;32.61;46.32;99551.44;4295517;33;34705;-77
2023/08/23 09:09:50;;;;;;;12.10;9.05;;;;;;;32.72;45.73;99549.59;4328573;33;33983;-77
2023/08/23 09:12:19;;;;;;;12.40;9.23;;;;;;;32.92;45.04;99545.03;4328510;33;34888;-77
2023/08/23 09:14:50;;;;;;;11.88;9.95;;;;;;;32.43;45.93;99550.75;4326353;33;34245;-77
2023/08/23 09:17:22;;;;;;;17.00;9.93;;;;;;;32.77;45.88;99556.00;4327825;33;33767;-76
2023/08/23 09:19:51;;;;;;;11.35;8.43;;;;;;;32.56;46.73;99565.28;4327295;33;33791;-77
2023/08/23 09:22:20;;;;;;;13.73;9.10;;;;;;;32.86;45.28;99561.91;4340349;33;35647;-77
2023/08/23 09:24:48;;;;;;;14.55;9.70;;;;;;;33.09;46.09;99561.53;4340585;33;33910;-77
2023/08/23 09:27:16;;;;;;;15.90;9.18;;;;;;;33.12;47.22;99569.31;4343909;33;34666;-77
2023/08/23 09:30:04;;;;;;;13.15;9.90;;;;;;;33.02;45.56;99560.94;4342431;33;34910;-77
2023/08/23 09:32:31;;;;;;;16.77;10.20;;;;;;;33.53;45.29;99558.50;4342293;33;34245;-77
2023/08/23 09:35:10;;;;;;;22.02;11.25;;;;;;;33.38;45.42;99558.37;4345496;32;34195;-76
2023/08/23 09:37:45;;;;;;;16.08;9.65;;;;;;;33.71;44.97;99550.78;4359402;32;33466;-76
2023/08/23 09:40:28;;;;;;;23.08;9.85;;;;;;;33.28;44.27;99545.28;4357171;32;33684;-76
2023/08/23 09:42:57;;;;;;;17.58;10.35;;;;;;;33.62;44.37;99545.78;4358508;32;33970;-77
2023/08/23 09:45:26;;;;;;;13.75;8.80;;;;;;;33.37;44.78;99542.84;4346524;32;33748;-77
2023/08/23 09:47:59;;;;;;;11.98;9.38;;;;;;;33.92;43.73;99549.75;4359498;32;33697;-77
2023/08/23 09:50:27;;;;;;;14.52;8.88;;;;;;;33.92;42.13;99541.44;4354776;32;34002;-79
2023/08/23 09:53:02;;;;;;;12.68;9.95;;;;;;;34.19;41.88;99544.03;4354329;32;33948;-77
2023/08/23 09:55:32;;;;;;;10.27;8.65;;;;;;;34.22;43.29;99548.19;4357309;32;33439;-77
2023/08/23 09:58:00;;;;;;;12.40;9.35;;;;;;;34.24;42.21;99552.34;4339015;32;34088;-79
2023/08/23 10:00:28;;;;;;;11.65;8.73;;;;;;;34.30;42.82;99542.94;4350929;32;33962;-74
2023/08/23 10:02:57;;;;;;;11.23;8.50;;;;;;;34.26;42.49;99544.59;4357109;32;34697;-78
2023/08/23 10:05:26;;;;;;;10.95;8.27;;;;;;;34.42;41.49;99539.06;4359190;32;33409;-81
2023/08/23 10:07:56;;;;;;;13.02;8.23;;;;;;;34.60;41.97;99538.53;4355862;32;33551;-81
2023/08/23 10:10:25;;;;;;;12.80;9.55;;;;;;;34.86;41.96;99544.06;4357818;32;33695;-78
2023/08/23 10:12:55;;;;;;;12.68;9.43;;;;;;;34.69;40.54;99541.59;4338973;32;34090;-77
2023/08/23 10:15:28;;;;;;;14.82;10.07;;;;;;;34.43;41.33;99536.00;4354943;32;34436;-81
2023/08/23 10:17:58;;;;;;;13.93;9.30;;;;;;;34.56;41.06;99536.59;4325692;33;33986;-80
2023/08/23 10:20:26;;;;;;;15.35;9.20;;;;;;;34.93;41.21;99539.03;4325974;33;33765;-79
2023/08/23 10:22:56;;;;;;;13.77;8.55;;;;;;;34.94;40.68;99537.94;4328322;33;34813;-80
2023/08/23 10:25:24;;;;;;;14.93;8.38;;;;;;;34.64;40.48;99527.69;4314708;33;34324;-77
2023/08/23 10:27:53;;;;;;;12.13;8.43;;;;;;;35.17;40.31;99533.75;4327795;33;33388;-77
2023/08/23 10:30:22;;;;;;;13.48;9.50;;;;;;;35.01;40.74;99528.19;4320285;33;33982;-75
2023/08/23 10:32:54;;;;;;;10.20;8.75;;;;;;;34.70;40.73;99529.34;4324519;33;34003;-79
2023/08/23 10:35:31;;;;;;;12.70;9.32;;;;;;;34.65;40.68;99532.16;4325150;33;33674;-76
2023/08/23 10:37:59;;;;;;;10.57;8.70;;;;;;;35.24;39.87;99525.94;4324305;33;33309;-78
2023/08/23 10:40:28;;;;;;;14.02;9.25;;;;;;;35.41;40.15;99522.81;4326494;33;33964;-76
2023/08/23 10:42:56;;;;;;;11.45;9.18;;;;;;;34.99;40.55;99521.25;4325411;33;33037;-80
2023/08/23 10:45:25;;;;;;;14.80;9.25;;;;;;;34.91;40.67;99527.38;4309767;33;32087;-77
2023/08/23 10:47:53;;;;;;;10.93;8.40;;;;;;;34.87;39.68;99526.28;4324562;33;33365;-75
2023/08/23 10:50:21;;;;;;;11.73;8.07;;;;;;;35.52;39.30;99516.13;4329230;33;34781;-69
2023/08/23 10:52:49;;;;;;;10.80;7.72;;;;;;;35.62;38.74;99515.25;4342093;32;33589;-70
2023/08/23 10:55:17;;;;;;;10.07;8.27;;;;;;;34.87;38.97;99516.00;4342345;32;33867;-79
2023/08/23 10:57:45;;;;;;;10.77;8.48;;;;;;;34.77;39.38;99516.84;4343565;33;34415;-78
2023/08/23 11:00:14;;;;;;;10.57;8.15;;;;;;;35.25;39.73;99513.72;4341107;32;32155;-79
2023/08/23 11:02:42;;;;;;;13.82;8.95;;;;;;;35.62;37.37;99502.19;4340105;32;33840;-80
2023/08/23 11:05:10;;;;;;;9.82;8.52;;;;;;;35.95;37.86;99504.50;4344593;32;33351;-80
2023/08/23 11:07:38;;;;;;;10.80;8.77;;;;;;;35.78;38.15;99510.44;4333850;32;33572;-82
2023/08/23 11:10:08;;;;;;;13.23;8.43;;;;;;;35.31;38.02;99507.00;4343103;32;33488;-82
2023/08/23 11:12:38;;;;;;;9.25;7.15;;;;;;;35.00;38.84;99512.63;4340019;32;34750;-80
2023/08/23 11:15:06;;;;;;;9.60;7.25;;;;;;;35.36;37.45;99511.72;4341351;32;32384;-82
2023/08/23 11:17:34;;;;;;;11.73;7.53;;;;;;;35.19;37.93;99512.06;4339593;32;33790;-80
2023/08/23 11:20:03;;;;;;;10.55;7.90;;;;;;;35.14;38.08;99514.84;4342076;32;33953;-79
2023/08/23 11:22:31;;;;;;;13.27;8.43;;;;;;;35.46;37.87;99509.72;4347502;32;32777;-78
2023/08/23 11:24:59;;;;;;;11.07;8.23;;;;;;;34.65;39.25;99512.69;4339555;32;33295;-79
2023/08/23 11:27:26;;;;;;;11.90;8.70;;;;;;;34.81;39.58;99511.56;4349452;32;33166;-81
2023/08/23 11:30:01;;;;;;;12.75;7.90;;;;;;;35.10;39.00;99506.25;4361086;32;33434;-81
2023/08/23 11:32:30;;;;;;;10.20;7.95;;;;;;;35.15;39.36;99509.00;4356878;32;34101;-83